Salish Eagle — CFCX — position and weather

sailwx.info

Track history (hours):
 
Tides and Currents Weather Stations Pressure Air Temp Water Temp Dewpoint Dewpoint Depression Visibility Wind Speed Wind Dir Waves Ship Positions

Salish Eagle

Last reported at 2017-Dec-15 20:00 UTC. Time now 2017-Dec-15 20:02 UTC.
Position N 48°48' W 123°19'.

Length 107 m; draft 4.5 m.

Type: Ship. MMSI: 316030626.

Date/timePositionNaut miles runAvg speedWind from/ knotsBaromVisibWave heightAir tempDewpointWater temp
2017-Dec-15 20:00N 48°48' W 123°19'3 5.0
2017-Dec-15 19:28N 48°51' W 123°20'2 4.2
2017-Dec-15 19:00N 48°53' W 123°19'4 6.3
2017-Dec-15 18:22N 48°56' W 123°15'514.8
2017-Dec-15 18:00N 48°60' W 123°09'1 2.5
2017-Dec-15 17:30N 49°00' W 123°08'1 2.3
2017-Dec-15 17:01N 48°59' W 123°08'714.6
2017-Dec-15 16:31N 48°54' W 123°16'3 6.6
2017-Dec-15 16:00N 48°51' W 123°19'1 1.7
2017-Dec-15 15:31N 48°51' W 123°20'3 5.2
2017-Dec-15 14:58N 48°48' W 123°19'3 0.3
2017-Dec-15 05:34N 48°51' W 123°20'1 5.8
2017-Dec-15 05:28N 48°51' W 123°20'2 2.5
2017-Dec-15 04:42N 48°53' W 123°19'0 0.1
2017-Dec-15 04:29N 48°53' W 123°19'612.8
2017-Dec-15 03:59N 48°58' W 123°13'2 1.5
2017-Dec-15 02:30N 48°58' W 123°10'9 6.3
2017-Dec-15 01:00N 48°51' W 123°20'3 5.3
2017-Dec-15 00:30N 48°48' W 123°20'6 1.1
2017-Dec-14 18:30N 48°54' W 123°17'714.6
2017-Dec-14 18:00N 48°59' W 123°09'1 2.6
2017-Dec-14 17:30N 49°00' W 123°08'3 6.0
2017-Dec-14 17:01N 48°58' W 123°10'714.4
2017-Dec-14 16:31N 48°53' W 123°18'3 5.1
2017-Dec-14 16:00N 48°51' W 123°21'4 3.5
2017-Dec-14 15:00N 48°48' W 123°19'510.8
2017-Dec-14 14:30N 48°51' W 123°26'1 1.4
2017-Dec-14 14:00N 48°51' W 123°27'0 0.0
2017-Dec-14 13:23N 48°51' W 123°27'0 0.0
2017-Dec-14 12:59N 48°51' W 123°27'0 0.0
2017-Dec-14 12:20N 48°51' W 123°27'0 0.0
2017-Dec-14 10:41N 48°51' W 123°27'0 0.0
2017-Dec-14 08:47N 48°51' W 123°27'0 0.0
2017-Dec-14 08:23N 48°51' W 123°27'0 0.0
2017-Dec-14 07:56N 48°51' W 123°27'0 0.0
2017-Dec-14 07:29N 48°51' W 123°27'0 0.0
2017-Dec-14 06:53N 48°51' W 123°27'0 0.0
2017-Dec-14 06:23N 48°51' W 123°27'0 0.0
2017-Dec-14 05:59N 48°51' W 123°27'0 0.1
2017-Dec-14 05:30N 48°51' W 123°27'4 8.8
2017-Dec-14 05:00N 48°51' W 123°20'1 2.8
2017-Dec-14 04:30N 48°52' W 123°19'1 2.4
2017-Dec-14 04:00N 48°53' W 123°18'714.6
2017-Dec-14 03:30N 48°58' W 123°11'3 5.4
2017-Dec-14 03:00N 49°00' W 123°08'2 3.5
2017-Dec-14 02:30N 48°59' W 123°09'714.3
2017-Dec-14 02:00N 48°54' W 123°16'2 4.7
2017-Dec-14 01:30N 48°52' W 123°19'1 2.5
2017-Dec-14 01:00N 48°51' W 123°20'3 5.3
2017-Dec-14 00:31N 48°48' W 123°20'1 2.8
2017-Dec-14 00:00N 48°48' W 123°22'4 8.8
2017-Dec-13 23:30N 48°51' W 123°27'0 0.0
2017-Dec-13 23:00N 48°51' W 123°27'0 0.0
2017-Dec-13 22:29N 48°51' W 123°27'0 0.0
2017-Dec-13 21:52N 48°51' W 123°27'0 0.0
2017-Dec-13 20:51N 48°51' W 123°27'2 6.1
2017-Dec-13 20:30N 48°50' W 123°25'4 7.9
2017-Dec-13 20:00N 48°48' W 123°19'3 5.5
2017-Dec-13 19:30N 48°51' W 123°20'2 3.8
2017-Dec-13 19:01N 48°53' W 123°19'2 3.9
2017-Dec-13 18:30N 48°54' W 123°17'714.9
2017-Dec-13 18:00N 48°60' W 123°09'1 2.4
2017-Dec-13 17:30N 49°00' W 123°08'0 0.8
2017-Dec-13 17:01N 48°60' W 123°08'815.9
2017-Dec-13 16:30N 48°54' W 123°16'3 6.2
2017-Dec-13 16:01N 48°51' W 123°19'1 2.2
2017-Dec-13 15:31N 48°51' W 123°20'3 5.5
2017-Dec-13 15:00N 48°48' W 123°19'5 9.5
2017-Dec-13 14:31N 48°50' W 123°25'1 2.7
2017-Dec-13 14:00N 48°51' W 123°27'0 0.0
2017-Dec-13 13:30N 48°51' W 123°27'0 0.0
2017-Dec-13 13:00N 48°51' W 123°27'0 0.0
2017-Dec-13 12:30N 48°51' W 123°27'0 0.0
2017-Dec-13 12:00N 48°51' W 123°27'0 0.0
2017-Dec-13 11:24N 48°51' W 123°27'0 0.0
2017-Dec-13 11:00N 48°51' W 123°27'0 0.0
2017-Dec-13 10:30N 48°51' W 123°27'0 0.0
2017-Dec-13 09:57N 48°51' W 123°27'0 0.0
2017-Dec-13 09:21N 48°51' W 123°27'0 0.0
2017-Dec-13 08:18N 48°51' W 123°27'0 0.0
2017-Dec-13 08:00N 48°51' W 123°27'0 0.0
2017-Dec-13 07:30N 48°51' W 123°27'0 0.0
2017-Dec-13 07:00N 48°51' W 123°27'0 0.0
2017-Dec-13 06:24N 48°51' W 123°27'0 0.0
2017-Dec-13 05:57N 48°51' W 123°27'0 0.4
2017-Dec-13 05:31N 48°51' W 123°27'4 8.2
2017-Dec-13 05:00N 48°51' W 123°20'1 1.6
2017-Dec-13 04:30N 48°52' W 123°20'1 3.0
2017-Dec-13 04:01N 48°53' W 123°18'714.0
2017-Dec-13 03:30N 48°58' W 123°11'3 6.3
2017-Dec-13 03:00N 49°00' W 123°08'1 1.1
2017-Dec-13 02:30N 48°60' W 123°08'714.2
2017-Dec-13 02:00N 48°55' W 123°15'3 6.1
2017-Dec-13 01:30N 48°52' W 123°18'2 3.7
2017-Dec-13 01:01N 48°51' W 123°20'3 5.3
2017-Dec-13 00:31N 48°48' W 123°20'1 2.1
2017-Dec-13 00:00N 48°48' W 123°21'5 9.4
2017-Dec-12 23:30N 48°51' W 123°27'0 0.0
2017-Dec-12 22:48N 48°51' W 123°27'0 0.0
2017-Dec-12 22:24N 48°51' W 123°27'0 0.0
2017-Dec-12 21:57N 48°51' W 123°27'0 0.0
2017-Dec-12 21:30N 48°51' W 123°27'0 0.0
2017-Dec-12 21:00N 48°51' W 123°27'3 6.2
2017-Dec-12 20:30N 48°49' W 123°24'3 6.5
2017-Dec-12 20:00N 48°48' W 123°19'3 5.6
2017-Dec-12 19:30N 48°51' W 123°20'2 3.9
2017-Dec-12 19:01N 48°53' W 123°19'3 5.5
2017-Dec-12 18:30N 48°54' W 123°16'714.3
2017-Dec-12 18:00N 48°60' W 123°09'1 1.4
2017-Dec-12 17:30N 49°00' W 123°08'3 6.7
2017-Dec-12 17:00N 48°58' W 123°11'714.3
2017-Dec-12 16:30N 48°53' W 123°18'2 4.4
2017-Dec-12 16:00N 48°51' W 123°21'1 3.0
2017-Dec-12 15:30N 48°50' W 123°20'2 3.8
2017-Dec-12 14:56N 48°48' W 123°19'511.7
2017-Dec-12 14:30N 48°51' W 123°25'1 2.0
2017-Dec-12 14:00N 48°51' W 123°27'0 0.0
2017-Dec-12 13:30N 48°51' W 123°27'0 0.0
2017-Dec-12 12:58N 48°51' W 123°27'0 0.0
2017-Dec-12 12:16N 48°51' W 123°27'0 0.0
2017-Dec-12 11:46N 48°51' W 123°27'0 0.0
2017-Dec-12 11:25N 48°51' W 123°27'0 0.0
2017-Dec-12 10:52N 48°51' W 123°27'0 0.0
2017-Dec-12 10:16N 48°51' W 123°27'0 0.0
2017-Dec-12 09:58N 48°51' W 123°27'0 0.0
2017-Dec-12 08:07N 48°51' W 123°27'0 0.0
2017-Dec-12 07:58N 48°51' W 123°27'0 0.0
2017-Dec-12 07:19N 48°51' W 123°27'0 0.0
2017-Dec-12 06:34N 48°51' W 123°27'0 0.0
2017-Dec-12 06:10N 48°51' W 123°27'0 0.0
2017-Dec-12 05:52N 48°51' W 123°27'0 1.1
2017-Dec-12 05:30N 48°51' W 123°26'4 8.7
2017-Dec-12 05:00N 48°51' W 123°20'1 2.3
2017-Dec-12 04:30N 48°52' W 123°19'3 5.6
2017-Dec-12 03:53N 48°55' W 123°16'513.6
2017-Dec-12 03:30N 48°58' W 123°10'3 5.3
2017-Dec-12 03:00N 49°00' W 123°08'2 3.4
2017-Dec-12 02:30N 48°59' W 123°09'714.8
2017-Dec-12 02:00N 48°53' W 123°17'3 5.1
2017-Dec-12 01:30N 48°52' W 123°19'1 1.7
2017-Dec-12 01:00N 48°51' W 123°20'3 5.3
2017-Dec-12 00:30N 48°48' W 123°20'1 2.7
2017-Dec-12 00:00N 48°48' W 123°22'5 9.1
2017-Dec-11 23:31N 48°51' W 123°27'0 0.0
2017-Dec-11 22:46N 48°51' W 123°27'0 0.0
2017-Dec-11 22:28N 48°51' W 123°27'0 0.0
2017-Dec-11 21:58N 48°51' W 123°27'0 0.0
2017-Dec-11 21:27N 48°51' W 123°27'0 0.0
2017-Dec-11 21:00N 48°51' W 123°27'5 9.1
2017-Dec-11 20:30N 48°48' W 123°22'1 2.3
2017-Dec-11 20:00N 48°48' W 123°20'3 5.7
2017-Dec-11 19:30N 48°51' W 123°20'2 3.9
2017-Dec-11 19:00N 48°53' W 123°19'4 7.9
2017-Dec-11 18:28N 48°56' W 123°15'613.7
2017-Dec-11 18:00N 49°00' W 123°08'0 0.3
2017-Dec-11 17:30N 49°00' W 123°08'5 9.3
2017-Dec-11 17:00N 48°56' W 123°12'611.8
2017-Dec-11 16:29N 48°53' W 123°19'2 4.1
2017-Dec-11 16:01N 48°51' W 123°21'1 1.6
2017-Dec-11 15:30N 48°50' W 123°20'2 4.5
2017-Dec-11 14:59N 48°48' W 123°19'510.3
2017-Dec-11 14:29N 48°51' W 123°26'1 1.8
2017-Dec-11 14:01N 48°51' W 123°27'0 0.0
2017-Dec-11 13:31N 48°51' W 123°27'0 0.0
2017-Dec-11 12:59N 48°51' W 123°27'0 0.0
2017-Dec-11 12:29N 48°51' W 123°27'0 0.0
2017-Dec-11 11:59N 48°51' W 123°27'0 0.0
2017-Dec-11 11:29N 48°51' W 123°27'0 0.0
2017-Dec-11 10:59N 48°51' W 123°27'0 0.0
2017-Dec-11 10:29N 48°51' W 123°27'0 0.0
2017-Dec-11 09:59N 48°51' W 123°27'0 0.0
2017-Dec-11 09:05N 48°51' W 123°27'0 0.0
2017-Dec-11 08:56N 48°51' W 123°27'0 0.0
2017-Dec-11 08:20N 48°51' W 123°27'0 0.0
2017-Dec-11 07:47N 48°51' W 123°27'0 0.0
2017-Dec-11 07:17N 48°51' W 123°27'0 0.0
2017-Dec-11 06:59N 48°51' W 123°27'0 0.0
2017-Dec-11 06:30N 48°51' W 123°27'5 9.0
2017-Dec-11 06:00N 48°52' W 123°20'713.5
2017-Dec-11 05:30N 48°56' W 123°12'510.3
2017-Dec-11 05:00N 49°00' W 123°08'2 3.8
2017-Dec-11 04:30N 48°59' W 123°09'714.3
2017-Dec-11 04:00N 48°53' W 123°17'2 3.2
2017-Dec-11 03:30N 48°52' W 123°18'2 3.3
2017-Dec-11 03:00N 48°51' W 123°20'2 4.4
2017-Dec-11 02:30N 48°53' W 123°18'814.9
2017-Dec-11 02:00N 48°58' W 123°11'3 5.5
2017-Dec-11 01:30N 49°00' W 123°08'1 2.1
2017-Dec-11 01:00N 48°59' W 123°08'714.1
2017-Dec-11 00:30N 48°54' W 123°16'510.8
2017-Dec-11 00:00N 48°50' W 123°21'2 4.8
2017-Dec-10 23:30N 48°48' W 123°19'611.0
2017-Dec-10 23:00N 48°51' W 123°26'0 0.8
2017-Dec-10 22:30N 48°51' W 123°27'1 1.2
2017-Dec-10 22:00N 48°51' W 123°26'510.9
2017-Dec-10 21:30N 48°48' W 123°19'3 5.4
2017-Dec-10 21:00N 48°50' W 123°20'1 1.4
2017-Dec-10 20:30N 48°51' W 123°21'2 3.9
2017-Dec-10 20:00N 48°53' W 123°19'612.3
2017-Dec-10 19:30N 48°57' W 123°12'4 8.9
2017-Dec-10 19:01N 49°00' W 123°08'0 0.0
2017-Dec-10 18:30N 49°00' W 123°08'1 2.6
2017-Dec-10 18:00N 48°59' W 123°09'713.9
2017-Dec-10 17:29N 48°54' W 123°16'2 4.4
2017-Dec-10 17:00N 48°52' W 123°18'2 3.8
2017-Dec-10 16:30N 48°51' W 123°20'3 5.5
2017-Dec-10 16:00N 48°48' W 123°19'4 8.5
2017-Dec-10 15:30N 48°50' W 123°25'2 3.8
2017-Dec-10 15:00N 48°51' W 123°27'0 0.0
2017-Dec-10 14:31N 48°51' W 123°27'0 0.0
2017-Dec-10 13:57N 48°51' W 123°27'0 0.0
2017-Dec-10 13:30N 48°51' W 123°27'0 0.0
2017-Dec-10 12:57N 48°51' W 123°27'0 0.0
2017-Dec-10 12:27N 48°51' W 123°27'0 0.0
2017-Dec-10 11:51N 48°51' W 123°27'0 0.0
2017-Dec-10 11:27N 48°51' W 123°27'0 0.0
2017-Dec-10 11:00N 48°51' W 123°27'0 0.0
2017-Dec-10 10:21N 48°51' W 123°27'0 0.0
2017-Dec-10 10:00N 48°51' W 123°27'0 0.0
2017-Dec-10 09:21N 48°51' W 123°27'0 0.0
2017-Dec-10 09:00N 48°51' W 123°27'0 0.0
2017-Dec-10 08:30N 48°51' W 123°27'1 2.8
2017-Dec-10 08:01N 48°50' W 123°25'4 6.7
2017-Dec-10 07:28N 48°51' W 123°20'2 4.0
2017-Dec-10 06:59N 48°53' W 123°19'4 7.5
2017-Dec-10 06:31N 48°55' W 123°15'713.8
2017-Dec-10 06:00N 49°00' W 123°08'0 0.3
2017-Dec-10 05:30N 49°00' W 123°08'0 0.0
2017-Dec-10 05:00N 49°00' W 123°08'0 0.0
2017-Dec-10 04:30N 49°00' W 123°08'0 0.0
2017-Dec-10 03:48N 49°00' W 123°08'0 0.0
2017-Dec-10 03:30N 49°00' W 123°08'0 0.0
2017-Dec-10 03:00N 49°00' W 123°08'0 0.0
2017-Dec-10 02:30N 49°00' W 123°08'0 0.0
2017-Dec-10 02:00N 49°00' W 123°08'4 7.1
2017-Dec-10 01:30N 48°57' W 123°11'713.9
2017-Dec-10 01:00N 48°53' W 123°19'2 3.3
2017-Dec-10 00:30N 48°52' W 123°21'1 1.5
2017-Dec-10 00:00N 48°51' W 123°20'4 8.7
2017-Dec-09 23:30N 48°51' W 123°27'0 0.1
2017-Dec-09 22:57N 48°51' W 123°27'0 0.0
2017-Dec-09 22:30N 48°51' W 123°27'1 2.0
2017-Dec-09 22:00N 48°51' W 123°25'612.6
2017-Dec-09 21:30N 48°54' W 123°17'715.0
2017-Dec-09 21:00N 48°59' W 123°09'2 3.3
2017-Dec-09 20:30N 49°00' W 123°08'5 9.8
2017-Dec-09 20:00N 48°56' W 123°12'713.3
2017-Dec-09 19:31N 48°51' W 123°19'1 1.6
2017-Dec-09 19:00N 48°51' W 123°20'0 0.0
2017-Dec-09 18:30N 48°51' W 123°20'2 3.7
2017-Dec-09 17:59N 48°53' W 123°19'3 6.7
2017-Dec-09 17:30N 48°55' W 123°16'713.9
2017-Dec-09 17:00N 48°60' W 123°09'1 1.3
2017-Dec-09 16:30N 49°00' W 123°08'4 7.3
2017-Dec-09 16:00N 48°57' W 123°11'714.8
2017-Dec-09 15:31N 48°52' W 123°18'510.4
2017-Dec-09 15:01N 48°51' W 123°26'0 0.8
2017-Dec-09 14:31N 48°51' W 123°27'0 0.0
2017-Dec-09 13:58N 48°51' W 123°27'0 0.0
2017-Dec-09 12:37N 48°51' W 123°27'0 0.0
2017-Dec-09 12:28N 48°51' W 123°27'0 0.0
2017-Dec-09 10:52N 48°51' W 123°27'0 0.0
2017-Dec-09 10:28N 48°51' W 123°27'0 0.0
2017-Dec-09 09:01N 48°51' W 123°27'0 0.0
2017-Dec-09 08:52N 48°51' W 123°27'0 0.0
2017-Dec-09 07:58N 48°51' W 123°27'0 0.0
2017-Dec-09 07:25N 48°51' W 123°27'0 0.0
2017-Dec-09 07:00N 48°51' W 123°27'5 9.2
2017-Dec-09 06:30N 48°48' W 123°22'2 4.4
2017-Dec-09 06:00N 48°50' W 123°20'2 4.0
2017-Dec-09 05:31N 48°52' W 123°19'3 6.3
2017-Dec-09 05:00N 48°54' W 123°16'816.0
2017-Dec-09 04:30N 49°00' W 123°08'0 0.3
2017-Dec-09 04:00N 49°00' W 123°08'4 7.4
2017-Dec-09 03:30N 48°57' W 123°11'714.1
2017-Dec-09 03:01N 48°53' W 123°19'1 1.1
2017-Dec-09 02:29N 48°53' W 123°18'3 5.3
2017-Dec-09 02:00N 48°51' W 123°21'3 6.6
2017-Dec-09 01:30N 48°51' W 123°26'1 1.3
2017-Dec-09 01:00N 48°51' W 123°25'5 9.5
2017-Dec-09 00:30N 48°53' W 123°19'4 7.5
2017-Dec-09 00:00N 48°56' W 123°15'713.9
2017-Dec-08 23:30N 49°00' W 123°08'0 0.1
2017-Dec-08 23:00N 49°00' W 123°08'713.3
2017-Dec-08 22:30N 48°55' W 123°14'612.4
2017-Dec-08 22:00N 48°51' W 123°21'3 6.8
2017-Dec-08 21:30N 48°51' W 123°27'1 1.6
2017-Dec-08 21:00N 48°51' W 123°26'510.4
2017-Dec-08 20:30N 48°48' W 123°19'3 5.1
2017-Dec-08 20:00N 48°50' W 123°20'1 2.4
2017-Dec-08 19:30N 48°52' W 123°20'1 2.5
2017-Dec-08 19:00N 48°53' W 123°19'510.0
2017-Dec-08 18:30N 48°56' W 123°14'610.5
2017-Dec-08 17:58N 49°00' W 123°08'0 0.0
2017-Dec-08 17:30N 49°00' W 123°08'612.9
2017-Dec-08 17:00N 48°55' W 123°14'4 7.7
2017-Dec-08 16:27N 48°53' W 123°19'2 4.1
2017-Dec-08 16:00N 48°51' W 123°21'1 2.5
2017-Dec-08 15:31N 48°50' W 123°20'2 4.8
2017-Dec-08 15:00N 48°48' W 123°19'510.1
2017-Dec-08 14:29N 48°51' W 123°26'1 0.6
2017-Dec-08 13:05N 48°51' W 123°27'0 0.0
2017-Dec-08 12:59N 48°51' W 123°27'0 0.0
2017-Dec-08 12:14N 48°51' W 123°27'0 0.0
2017-Dec-08 11:59N 48°51' W 123°27'0 0.0
2017-Dec-08 09:35N 48°51' W 123°27'0 0.0
2017-Dec-08 09:17N 48°51' W 123°27'0 0.0
2017-Dec-08 08:56N 48°51' W 123°27'0 0.0
2017-Dec-08 07:41N 48°51' W 123°27'0 0.0
2017-Dec-08 07:23N 48°51' W 123°27'0 0.0
2017-Dec-08 06:59N 48°51' W 123°27'0 0.0
2017-Dec-08 06:29N 48°51' W 123°27'0 0.0
2017-Dec-08 05:56N 48°51' W 123°27'1 2.2
2017-Dec-08 05:31N 48°51' W 123°26'4 7.7
2017-Dec-08 05:00N 48°51' W 123°20'2 3.9
2017-Dec-08 04:30N 48°53' W 123°19'713.1
2017-Dec-08 04:00N 48°58' W 123°12'4 8.0
2017-Dec-08 03:29N 49°00' W 123°08'0 0.1
2017-Dec-08 03:01N 49°00' W 123°08'714.4
2017-Dec-08 02:30N 48°55' W 123°15'4 8.0
2017-Dec-08 02:00N 48°52' W 123°19'1 2.3
2017-Dec-08 01:30N 48°51' W 123°20'0 0.0
2017-Dec-08 01:00N 48°51' W 123°20'3 5.2
2017-Dec-08 00:30N 48°48' W 123°20'2 3.3
2017-Dec-08 00:00N 48°48' W 123°22'4 8.3
2017-Dec-07 23:30N 48°51' W 123°27'0 0.0
2017-Dec-07 22:56N 48°51' W 123°27'0 0.0
2017-Dec-07 22:26N 48°51' W 123°27'0 0.0
2017-Dec-07 21:56N 48°51' W 123°27'0 0.0
2017-Dec-07 21:30N 48°51' W 123°27'4 7.7
2017-Dec-07 21:01N 48°48' W 123°23'3 5.0
2017-Dec-07 20:30N 48°48' W 123°19'3 5.6
2017-Dec-07 20:00N 48°51' W 123°20'1 1.7
2017-Dec-07 19:30N 48°51' W 123°21'2 3.7
2017-Dec-07 19:00N 48°53' W 123°19'510.5
2017-Dec-07 18:30N 48°57' W 123°15'612.0
2017-Dec-07 18:01N 49°00' W 123°08'0 0.4
2017-Dec-07 17:30N 49°00' W 123°08'713.1
2017-Dec-07 16:56N 48°54' W 123°15'3 7.1
2017-Dec-07 16:30N 48°53' W 123°19'2 3.9
2017-Dec-07 16:00N 48°51' W 123°20'2 4.6
2017-Dec-07 15:31N 48°48' W 123°20'1 1.8
2017-Dec-07 15:00N 48°48' W 123°19'510.4
2017-Dec-07 14:30N 48°51' W 123°26'1 1.5
2017-Dec-07 14:00N 48°51' W 123°27'0 0.0
2017-Dec-07 13:00N 48°51' W 123°27'0 0.0
2017-Dec-07 12:30N 48°51' W 123°27'0 0.0
2017-Dec-07 11:57N 48°51' W 123°27'0 0.0
2017-Dec-07 10:33N 48°51' W 123°27'0 0.0
2017-Dec-07 07:54N 48°51' W 123°27'0 0.0
2017-Dec-07 07:24N 48°51' W 123°27'0 0.0
2017-Dec-07 06:54N 48°51' W 123°27'0 0.0
2017-Dec-07 06:30N 48°51' W 123°27'0 0.0
2017-Dec-07 05:42N 48°51' W 123°27'0 0.0
2017-Dec-07 05:30N 48°51' W 123°27'4 7.6
2017-Dec-07 05:01N 48°51' W 123°21'0 0.9
2017-Dec-07 04:30N 48°51' W 123°21'2 3.7
2017-Dec-07 04:00N 48°53' W 123°19'714.1
2017-Dec-07 03:31N 48°58' W 123°12'4 7.3
2017-Dec-07 03:00N 49°00' W 123°08'0 0.3
2017-Dec-07 02:30N 49°00' W 123°08'713.6
2017-Dec-07 02:00N 48°55' W 123°14'4 7.6
2017-Dec-07 01:30N 48°53' W 123°19'2 3.9
2017-Dec-07 01:00N 48°51' W 123°20'2 4.8
2017-Dec-07 00:30N 48°48' W 123°20'1 1.4
2017-Dec-07 00:00N 48°48' W 123°21'510.0
2017-Dec-06 23:30N 48°51' W 123°27'0 0.0
2017-Dec-06 23:00N 48°51' W 123°27'0 0.0
2017-Dec-06 22:30N 48°51' W 123°27'0 0.0
2017-Dec-06 21:54N 48°51' W 123°27'0 0.0
2017-Dec-06 21:12N 48°51' W 123°27'0 0.0
2017-Dec-06 21:00N 48°51' W 123°27'  
Track history (hours):
 
Tides and Currents Weather Stations Pressure Air Temp Water Temp Dewpoint Dewpoint Depression Visibility Wind Speed Wind Dir Waves Ship Positions

Salish Eagle

Last reported at 2017-Dec-15 20:00 UTC. Time now 2017-Dec-15 20:02 UTC.
Position N 48°48' W 123°19'.

Length 107 m; draft 4.5 m.

Type: Ship. MMSI: 316030626.

Date/timePositionNaut miles runAvg speedWind from/ knotsBaromVisibWave heightAir tempDewpointWater temp
2017-Dec-15 20:00N 48°48' W 123°19'3 5.0
2017-Dec-15 19:28N 48°51' W 123°20'2 4.2
2017-Dec-15 19:00N 48°53' W 123°19'4 6.3
2017-Dec-15 18:22N 48°56' W 123°15'514.8
2017-Dec-15 18:00N 48°60' W 123°09'1 2.5
2017-Dec-15 17:30N 49°00' W 123°08'1 2.3
2017-Dec-15 17:01N 48°59' W 123°08'714.6
2017-Dec-15 16:31N 48°54' W 123°16'3 6.6
2017-Dec-15 16:00N 48°51' W 123°19'1 1.7
2017-Dec-15 15:31N 48°51' W 123°20'3 5.2
2017-Dec-15 14:58N 48°48' W 123°19'3 0.3
2017-Dec-15 05:34N 48°51' W 123°20'1 5.8
2017-Dec-15 05:28N 48°51' W 123°20'2 2.5
2017-Dec-15 04:42N 48°53' W 123°19'0 0.1
2017-Dec-15 04:29N 48°53' W 123°19'612.8
2017-Dec-15 03:59N 48°58' W 123°13'2 1.5
2017-Dec-15 02:30N 48°58' W 123°10'9 6.3
2017-Dec-15 01:00N 48°51' W 123°20'3 5.3
2017-Dec-15 00:30N 48°48' W 123°20'6 1.1
2017-Dec-14 18:30N 48°54' W 123°17'714.6
2017-Dec-14 18:00N 48°59' W 123°09'1 2.6
2017-Dec-14 17:30N 49°00' W 123°08'3 6.0
2017-Dec-14 17:01N 48°58' W 123°10'714.4
2017-Dec-14 16:31N 48°53' W 123°18'3 5.1
2017-Dec-14 16:00N 48°51' W 123°21'4 3.5
2017-Dec-14 15:00N 48°48' W 123°19'510.8
2017-Dec-14 14:30N 48°51' W 123°26'1 1.4
2017-Dec-14 14:00N 48°51' W 123°27'0 0.0
2017-Dec-14 13:23N 48°51' W 123°27'0 0.0
2017-Dec-14 12:59N 48°51' W 123°27'0 0.0
2017-Dec-14 12:20N 48°51' W 123°27'0 0.0
2017-Dec-14 10:41N 48°51' W 123°27'0 0.0
2017-Dec-14 08:47N 48°51' W 123°27'0 0.0
2017-Dec-14 08:23N 48°51' W 123°27'0 0.0
2017-Dec-14 07:56N 48°51' W 123°27'0 0.0
2017-Dec-14 07:29N 48°51' W 123°27'0 0.0
2017-Dec-14 06:53N 48°51' W 123°27'0 0.0
2017-Dec-14 06:23N 48°51' W 123°27'0 0.0
2017-Dec-14 05:59N 48°51' W 123°27'0 0.1
2017-Dec-14 05:30N 48°51' W 123°27'4 8.8
2017-Dec-14 05:00N 48°51' W 123°20'1 2.8
2017-Dec-14 04:30N 48°52' W 123°19'1 2.4
2017-Dec-14 04:00N 48°53' W 123°18'714.6
2017-Dec-14 03:30N 48°58' W 123°11'3 5.4
2017-Dec-14 03:00N 49°00' W 123°08'2 3.5
2017-Dec-14 02:30N 48°59' W 123°09'714.3
2017-Dec-14 02:00N 48°54' W 123°16'2 4.7
2017-Dec-14 01:30N 48°52' W 123°19'1 2.5
2017-Dec-14 01:00N 48°51' W 123°20'3 5.3
2017-Dec-14 00:31N 48°48' W 123°20'1 2.8
2017-Dec-14 00:00N 48°48' W 123°22'4 8.8
2017-Dec-13 23:30N 48°51' W 123°27'0 0.0
2017-Dec-13 23:00N 48°51' W 123°27'0 0.0
2017-Dec-13 22:29N 48°51' W 123°27'0 0.0
2017-Dec-13 21:52N 48°51' W 123°27'0 0.0
2017-Dec-13 20:51N 48°51' W 123°27'2 6.1
2017-Dec-13 20:30N 48°50' W 123°25'4 7.9
2017-Dec-13 20:00N 48°48' W 123°19'3 5.5
2017-Dec-13 19:30N 48°51' W 123°20'2 3.8
2017-Dec-13 19:01N 48°53' W 123°19'2 3.9
2017-Dec-13 18:30N 48°54' W 123°17'714.9
2017-Dec-13 18:00N 48°60' W 123°09'1 2.4
2017-Dec-13 17:30N 49°00' W 123°08'0 0.8
2017-Dec-13 17:01N 48°60' W 123°08'815.9
2017-Dec-13 16:30N 48°54' W 123°16'3 6.2
2017-Dec-13 16:01N 48°51' W 123°19'1 2.2
2017-Dec-13 15:31N 48°51' W 123°20'3 5.5
2017-Dec-13 15:00N 48°48' W 123°19'5 9.5
2017-Dec-13 14:31N 48°50' W 123°25'1 2.7
2017-Dec-13 14:00N 48°51' W 123°27'0 0.0
2017-Dec-13 13:30N 48°51' W 123°27'0 0.0
2017-Dec-13 13:00N 48°51' W 123°27'0 0.0
2017-Dec-13 12:30N 48°51' W 123°27'0 0.0
2017-Dec-13 12:00N 48°51' W 123°27'0 0.0
2017-Dec-13 11:24N 48°51' W 123°27'0 0.0
2017-Dec-13 11:00N 48°51' W 123°27'0 0.0
2017-Dec-13 10:30N 48°51' W 123°27'0 0.0
2017-Dec-13 09:57N 48°51' W 123°27'0 0.0
2017-Dec-13 09:21N 48°51' W 123°27'0 0.0
2017-Dec-13 08:18N 48°51' W 123°27'0 0.0
2017-Dec-13 08:00N 48°51' W 123°27'0 0.0
2017-Dec-13 07:30N 48°51' W 123°27'0 0.0
2017-Dec-13 07:00N 48°51' W 123°27'0 0.0
2017-Dec-13 06:24N 48°51' W 123°27'0 0.0
2017-Dec-13 05:57N 48°51' W 123°27'0 0.4
2017-Dec-13 05:31N 48°51' W 123°27'4 8.2
2017-Dec-13 05:00N 48°51' W 123°20'1 1.6
2017-Dec-13 04:30N 48°52' W 123°20'1 3.0
2017-Dec-13 04:01N 48°53' W 123°18'714.0
2017-Dec-13 03:30N 48°58' W 123°11'3 6.3
2017-Dec-13 03:00N 49°00' W 123°08'1 1.1
2017-Dec-13 02:30N 48°60' W 123°08'714.2
2017-Dec-13 02:00N 48°55' W 123°15'3 6.1
2017-Dec-13 01:30N 48°52' W 123°18'2 3.7
2017-Dec-13 01:01N 48°51' W 123°20'3 5.3
2017-Dec-13 00:31N 48°48' W 123°20'1 2.1
2017-Dec-13 00:00N 48°48' W 123°21'5 9.4
2017-Dec-12 23:30N 48°51' W 123°27'0 0.0
2017-Dec-12 22:48N 48°51' W 123°27'0 0.0
2017-Dec-12 22:24N 48°51' W 123°27'0 0.0
2017-Dec-12 21:57N 48°51' W 123°27'0 0.0
2017-Dec-12 21:30N 48°51' W 123°27'0 0.0
2017-Dec-12 21:00N 48°51' W 123°27'3 6.2
2017-Dec-12 20:30N 48°49' W 123°24'3 6.5
2017-Dec-12 20:00N 48°48' W 123°19'3 5.6
2017-Dec-12 19:30N 48°51' W 123°20'2 3.9
2017-Dec-12 19:01N 48°53' W 123°19'3 5.5
2017-Dec-12 18:30N 48°54' W 123°16'714.3
2017-Dec-12 18:00N 48°60' W 123°09'1 1.4
2017-Dec-12 17:30N 49°00' W 123°08'3 6.7
2017-Dec-12 17:00N 48°58' W 123°11'714.3
2017-Dec-12 16:30N 48°53' W 123°18'2 4.4
2017-Dec-12 16:00N 48°51' W 123°21'1 3.0
2017-Dec-12 15:30N 48°50' W 123°20'2 3.8
2017-Dec-12 14:56N 48°48' W 123°19'511.7
2017-Dec-12 14:30N 48°51' W 123°25'1 2.0
2017-Dec-12 14:00N 48°51' W 123°27'0 0.0
2017-Dec-12 13:30N 48°51' W 123°27'0 0.0
2017-Dec-12 12:58N 48°51' W 123°27'0 0.0
2017-Dec-12 12:16N 48°51' W 123°27'0 0.0
2017-Dec-12 11:46N 48°51' W 123°27'0 0.0
2017-Dec-12 11:25N 48°51' W 123°27'0 0.0
2017-Dec-12 10:52N 48°51' W 123°27'0 0.0
2017-Dec-12 10:16N 48°51' W 123°27'0 0.0
2017-Dec-12 09:58N 48°51' W 123°27'0 0.0
2017-Dec-12 08:07N 48°51' W 123°27'0 0.0
2017-Dec-12 07:58N 48°51' W 123°27'0 0.0
2017-Dec-12 07:19N 48°51' W 123°27'0 0.0
2017-Dec-12 06:34N 48°51' W 123°27'0 0.0
2017-Dec-12 06:10N 48°51' W 123°27'0 0.0
2017-Dec-12 05:52N 48°51' W 123°27'0 1.1
2017-Dec-12 05:30N 48°51' W 123°26'4 8.7
2017-Dec-12 05:00N 48°51' W 123°20'1 2.3
2017-Dec-12 04:30N 48°52' W 123°19'3 5.6
2017-Dec-12 03:53N 48°55' W 123°16'513.6
2017-Dec-12 03:30N 48°58' W 123°10'3 5.3
2017-Dec-12 03:00N 49°00' W 123°08'2 3.4
2017-Dec-12 02:30N 48°59' W 123°09'714.8
2017-Dec-12 02:00N 48°53' W 123°17'3 5.1
2017-Dec-12 01:30N 48°52' W 123°19'1 1.7
2017-Dec-12 01:00N 48°51' W 123°20'3 5.3
2017-Dec-12 00:30N 48°48' W 123°20'1 2.7
2017-Dec-12 00:00N 48°48' W 123°22'5 9.1
2017-Dec-11 23:31N 48°51' W 123°27'0 0.0
2017-Dec-11 22:46N 48°51' W 123°27'0 0.0
2017-Dec-11 22:28N 48°51' W 123°27'0 0.0
2017-Dec-11 21:58N 48°51' W 123°27'0 0.0
2017-Dec-11 21:27N 48°51' W 123°27'0 0.0
2017-Dec-11 21:00N 48°51' W 123°27'5 9.1
2017-Dec-11 20:30N 48°48' W 123°22'1 2.3
2017-Dec-11 20:00N 48°48' W 123°20'3 5.7
2017-Dec-11 19:30N 48°51' W 123°20'2 3.9
2017-Dec-11 19:00N 48°53' W 123°19'4 7.9
2017-Dec-11 18:28N 48°56' W 123°15'613.7
2017-Dec-11 18:00N 49°00' W 123°08'0 0.3
2017-Dec-11 17:30N 49°00' W 123°08'5 9.3
2017-Dec-11 17:00N 48°56' W 123°12'611.8
2017-Dec-11 16:29N 48°53' W 123°19'2 4.1
2017-Dec-11 16:01N 48°51' W 123°21'1 1.6
2017-Dec-11 15:30N 48°50' W 123°20'2 4.5
2017-Dec-11 14:59N 48°48' W 123°19'510.3
2017-Dec-11 14:29N 48°51' W 123°26'1 1.8
2017-Dec-11 14:01N 48°51' W 123°27'0 0.0
2017-Dec-11 13:31N 48°51' W 123°27'0 0.0
2017-Dec-11 12:59N 48°51' W 123°27'0 0.0
2017-Dec-11 12:29N 48°51' W 123°27'0 0.0
2017-Dec-11 11:59N 48°51' W 123°27'0 0.0
2017-Dec-11 11:29N 48°51' W 123°27'0 0.0
2017-Dec-11 10:59N 48°51' W 123°27'0 0.0
2017-Dec-11 10:29N 48°51' W 123°27'0 0.0
2017-Dec-11 09:59N 48°51' W 123°27'0 0.0
2017-Dec-11 09:05N 48°51' W 123°27'0 0.0
2017-Dec-11 08:56N 48°51' W 123°27'0 0.0
2017-Dec-11 08:20N 48°51' W 123°27'0 0.0
2017-Dec-11 07:47N 48°51' W 123°27'0 0.0
2017-Dec-11 07:17N 48°51' W 123°27'0 0.0
2017-Dec-11 06:59N 48°51' W 123°27'0 0.0
2017-Dec-11 06:30N 48°51' W 123°27'5 9.0
2017-Dec-11 06:00N 48°52' W 123°20'713.5
2017-Dec-11 05:30N 48°56' W 123°12'510.3
2017-Dec-11 05:00N 49°00' W 123°08'2 3.8
2017-Dec-11 04:30N 48°59' W 123°09'714.3
2017-Dec-11 04:00N 48°53' W 123°17'2 3.2
2017-Dec-11 03:30N 48°52' W 123°18'2 3.3
2017-Dec-11 03:00N 48°51' W 123°20'2 4.4
2017-Dec-11 02:30N 48°53' W 123°18'814.9
2017-Dec-11 02:00N 48°58' W 123°11'3 5.5
2017-Dec-11 01:30N 49°00' W 123°08'1 2.1
2017-Dec-11 01:00N 48°59' W 123°08'714.1
2017-Dec-11 00:30N 48°54' W 123°16'510.8
2017-Dec-11 00:00N 48°50' W 123°21'2 4.8
2017-Dec-10 23:30N 48°48' W 123°19'611.0
2017-Dec-10 23:00N 48°51' W 123°26'0 0.8
2017-Dec-10 22:30N 48°51' W 123°27'1 1.2
2017-Dec-10 22:00N 48°51' W 123°26'510.9
2017-Dec-10 21:30N 48°48' W 123°19'3 5.4
2017-Dec-10 21:00N 48°50' W 123°20'1 1.4
2017-Dec-10 20:30N 48°51' W 123°21'2 3.9
2017-Dec-10 20:00N 48°53' W 123°19'612.3
2017-Dec-10 19:30N 48°57' W 123°12'4 8.9
2017-Dec-10 19:01N 49°00' W 123°08'0 0.0
2017-Dec-10 18:30N 49°00' W 123°08'1 2.6
2017-Dec-10 18:00N 48°59' W 123°09'713.9
2017-Dec-10 17:29N 48°54' W 123°16'2 4.4
2017-Dec-10 17:00N 48°52' W 123°18'2 3.8
2017-Dec-10 16:30N 48°51' W 123°20'3 5.5
2017-Dec-10 16:00N 48°48' W 123°19'4 8.5
2017-Dec-10 15:30N 48°50' W 123°25'2 3.8
2017-Dec-10 15:00N 48°51' W 123°27'0 0.0
2017-Dec-10 14:31N 48°51' W 123°27'0 0.0
2017-Dec-10 13:57N 48°51' W 123°27'0 0.0
2017-Dec-10 13:30N 48°51' W 123°27'0 0.0
2017-Dec-10 12:57N 48°51' W 123°27'0 0.0
2017-Dec-10 12:27N 48°51' W 123°27'0 0.0
2017-Dec-10 11:51N 48°51' W 123°27'0 0.0
2017-Dec-10 11:27N 48°51' W 123°27'0 0.0
2017-Dec-10 11:00N 48°51' W 123°27'0 0.0
2017-Dec-10 10:21N 48°51' W 123°27'0 0.0
2017-Dec-10 10:00N 48°51' W 123°27'0 0.0
2017-Dec-10 09:21N 48°51' W 123°27'0 0.0
2017-Dec-10 09:00N 48°51' W 123°27'0 0.0
2017-Dec-10 08:30N 48°51' W 123°27'1 2.8
2017-Dec-10 08:01N 48°50' W 123°25'4 6.7
2017-Dec-10 07:28N 48°51' W 123°20'2 4.0
2017-Dec-10 06:59N 48°53' W 123°19'4 7.5
2017-Dec-10 06:31N 48°55' W 123°15'713.8
2017-Dec-10 06:00N 49°00' W 123°08'0 0.3
2017-Dec-10 05:30N 49°00' W 123°08'0 0.0
2017-Dec-10 05:00N 49°00' W 123°08'0 0.0
2017-Dec-10 04:30N 49°00' W 123°08'0 0.0
2017-Dec-10 03:48N 49°00' W 123°08'0 0.0
2017-Dec-10 03:30N 49°00' W 123°08'0 0.0
2017-Dec-10 03:00N 49°00' W 123°08'0 0.0
2017-Dec-10 02:30N 49°00' W 123°08'0 0.0
2017-Dec-10 02:00N 49°00' W 123°08'4 7.1
2017-Dec-10 01:30N 48°57' W 123°11'713.9
2017-Dec-10 01:00N 48°53' W 123°19'2 3.3
2017-Dec-10 00:30N 48°52' W 123°21'1 1.5
2017-Dec-10 00:00N 48°51' W 123°20'4 8.7
2017-Dec-09 23:30N 48°51' W 123°27'0 0.1
2017-Dec-09 22:57N 48°51' W 123°27'0 0.0
2017-Dec-09 22:30N 48°51' W 123°27'1 2.0
2017-Dec-09 22:00N 48°51' W 123°25'612.6
2017-Dec-09 21:30N 48°54' W 123°17'715.0
2017-Dec-09 21:00N 48°59' W 123°09'2 3.3
2017-Dec-09 20:30N 49°00' W 123°08'5 9.8
2017-Dec-09 20:00N 48°56' W 123°12'713.3
2017-Dec-09 19:31N 48°51' W 123°19'1 1.6
2017-Dec-09 19:00N 48°51' W 123°20'0 0.0
2017-Dec-09 18:30N 48°51' W 123°20'2 3.7
2017-Dec-09 17:59N 48°53' W 123°19'3 6.7
2017-Dec-09 17:30N 48°55' W 123°16'713.9
2017-Dec-09 17:00N 48°60' W 123°09'1 1.3
2017-Dec-09 16:30N 49°00' W 123°08'4 7.3
2017-Dec-09 16:00N 48°57' W 123°11'714.8
2017-Dec-09 15:31N 48°52' W 123°18'510.4
2017-Dec-09 15:01N 48°51' W 123°26'0 0.8
2017-Dec-09 14:31N 48°51' W 123°27'0 0.0
2017-Dec-09 13:58N 48°51' W 123°27'0 0.0
2017-Dec-09 12:37N 48°51' W 123°27'0 0.0
2017-Dec-09 12:28N 48°51' W 123°27'0 0.0
2017-Dec-09 10:52N 48°51' W 123°27'0 0.0
2017-Dec-09 10:28N 48°51' W 123°27'0 0.0
2017-Dec-09 09:01N 48°51' W 123°27'0 0.0
2017-Dec-09 08:52N 48°51' W 123°27'0 0.0
2017-Dec-09 07:58N 48°51' W 123°27'0 0.0
2017-Dec-09 07:25N 48°51' W 123°27'0 0.0
2017-Dec-09 07:00N 48°51' W 123°27'5 9.2
2017-Dec-09 06:30N 48°48' W 123°22'2 4.4
2017-Dec-09 06:00N 48°50' W 123°20'2 4.0
2017-Dec-09 05:31N 48°52' W 123°19'3 6.3
2017-Dec-09 05:00N 48°54' W 123°16'816.0
2017-Dec-09 04:30N 49°00' W 123°08'0 0.3
2017-Dec-09 04:00N 49°00' W 123°08'4 7.4
2017-Dec-09 03:30N 48°57' W 123°11'714.1
2017-Dec-09 03:01N 48°53' W 123°19'1 1.1
2017-Dec-09 02:29N 48°53' W 123°18'3 5.3
2017-Dec-09 02:00N 48°51' W 123°21'3 6.6
2017-Dec-09 01:30N 48°51' W 123°26'1 1.3
2017-Dec-09 01:00N 48°51' W 123°25'5 9.5
2017-Dec-09 00:30N 48°53' W 123°19'4 7.5
2017-Dec-09 00:00N 48°56' W 123°15'713.9
2017-Dec-08 23:30N 49°00' W 123°08'0 0.1
2017-Dec-08 23:00N 49°00' W 123°08'713.3
2017-Dec-08 22:30N 48°55' W 123°14'612.4
2017-Dec-08 22:00N 48°51' W 123°21'3 6.8
2017-Dec-08 21:30N 48°51' W 123°27'1 1.6
2017-Dec-08 21:00N 48°51' W 123°26'510.4
2017-Dec-08 20:30N 48°48' W 123°19'3 5.1
2017-Dec-08 20:00N 48°50' W 123°20'1 2.4
2017-Dec-08 19:30N 48°52' W 123°20'1 2.5
2017-Dec-08 19:00N 48°53' W 123°19'510.0
2017-Dec-08 18:30N 48°56' W 123°14'610.5
2017-Dec-08 17:58N 49°00' W 123°08'0 0.0
2017-Dec-08 17:30N 49°00' W 123°08'612.9
2017-Dec-08 17:00N 48°55' W 123°14'4 7.7
2017-Dec-08 16:27N 48°53' W 123°19'2 4.1
2017-Dec-08 16:00N 48°51' W 123°21'1 2.5
2017-Dec-08 15:31N 48°50' W 123°20'2 4.8
2017-Dec-08 15:00N 48°48' W 123°19'510.1
2017-Dec-08 14:29N 48°51' W 123°26'1 0.6
2017-Dec-08 13:05N 48°51' W 123°27'0 0.0
2017-Dec-08 12:59N 48°51' W 123°27'0 0.0
2017-Dec-08 12:14N 48°51' W 123°27'0 0.0
2017-Dec-08 11:59N 48°51' W 123°27'0 0.0
2017-Dec-08 09:35N 48°51' W 123°27'0 0.0
2017-Dec-08 09:17N 48°51' W 123°27'0 0.0
2017-Dec-08 08:56N 48°51' W 123°27'0 0.0
2017-Dec-08 07:41N 48°51' W 123°27'0 0.0
2017-Dec-08 07:23N 48°51' W 123°27'0 0.0
2017-Dec-08 06:59N 48°51' W 123°27'0 0.0
2017-Dec-08 06:29N 48°51' W 123°27'0 0.0
2017-Dec-08 05:56N 48°51' W 123°27'1 2.2
2017-Dec-08 05:31N 48°51' W 123°26'4 7.7
2017-Dec-08 05:00N 48°51' W 123°20'2 3.9
2017-Dec-08 04:30N 48°53' W 123°19'713.1
2017-Dec-08 04:00N 48°58' W 123°12'4 8.0
2017-Dec-08 03:29N 49°00' W 123°08'0 0.1
2017-Dec-08 03:01N 49°00' W 123°08'714.4
2017-Dec-08 02:30N 48°55' W 123°15'4 8.0
2017-Dec-08 02:00N 48°52' W 123°19'1 2.3
2017-Dec-08 01:30N 48°51' W 123°20'0 0.0
2017-Dec-08 01:00N 48°51' W 123°20'3 5.2
2017-Dec-08 00:30N 48°48' W 123°20'2 3.3
2017-Dec-08 00:00N 48°48' W 123°22'4 8.3
2017-Dec-07 23:30N 48°51' W 123°27'0 0.0
2017-Dec-07 22:56N 48°51' W 123°27'0 0.0
2017-Dec-07 22:26N 48°51' W 123°27'0 0.0
2017-Dec-07 21:56N 48°51' W 123°27'0 0.0
2017-Dec-07 21:30N 48°51' W 123°27'4 7.7
2017-Dec-07 21:01N 48°48' W 123°23'3 5.0
2017-Dec-07 20:30N 48°48' W 123°19'3 5.6
2017-Dec-07 20:00N 48°51' W 123°20'1 1.7
2017-Dec-07 19:30N 48°51' W 123°21'2 3.7
2017-Dec-07 19:00N 48°53' W 123°19'510.5
2017-Dec-07 18:30N 48°57' W 123°15'612.0
2017-Dec-07 18:01N 49°00' W 123°08'0 0.4
2017-Dec-07 17:30N 49°00' W 123°08'713.1
2017-Dec-07 16:56N 48°54' W 123°15'3 7.1
2017-Dec-07 16:30N 48°53' W 123°19'2 3.9
2017-Dec-07 16:00N 48°51' W 123°20'2 4.6
2017-Dec-07 15:31N 48°48' W 123°20'1 1.8
2017-Dec-07 15:00N 48°48' W 123°19'510.4
2017-Dec-07 14:30N 48°51' W 123°26'1 1.5
2017-Dec-07 14:00N 48°51' W 123°27'0 0.0
2017-Dec-07 13:00N 48°51' W 123°27'0 0.0
2017-Dec-07 12:30N 48°51' W 123°27'0 0.0
2017-Dec-07 11:57N 48°51' W 123°27'0 0.0
2017-Dec-07 10:33N 48°51' W 123°27'0 0.0
2017-Dec-07 07:54N 48°51' W 123°27'0 0.0
2017-Dec-07 07:24N 48°51' W 123°27'0 0.0
2017-Dec-07 06:54N 48°51' W 123°27'0 0.0
2017-Dec-07 06:30N 48°51' W 123°27'0 0.0
2017-Dec-07 05:42N 48°51' W 123°27'0 0.0
2017-Dec-07 05:30N 48°51' W 123°27'4 7.6
2017-Dec-07 05:01N 48°51' W 123°21'0 0.9
2017-Dec-07 04:30N 48°51' W 123°21'2 3.7
2017-Dec-07 04:00N 48°53' W 123°19'714.1
2017-Dec-07 03:31N 48°58' W 123°12'4 7.3
2017-Dec-07 03:00N 49°00' W 123°08'0 0.3
2017-Dec-07 02:30N 49°00' W 123°08'713.6
2017-Dec-07 02:00N 48°55' W 123°14'4 7.6
2017-Dec-07 01:30N 48°53' W 123°19'2 3.9
2017-Dec-07 01:00N 48°51' W 123°20'2 4.8
2017-Dec-07 00:30N 48°48' W 123°20'1 1.4
2017-Dec-07 00:00N 48°48' W 123°21'510.0
2017-Dec-06 23:30N 48°51' W 123°27'0 0.0
2017-Dec-06 23:00N 48°51' W 123°27'0 0.0
2017-Dec-06 22:30N 48°51' W 123°27'0 0.0
2017-Dec-06 21:54N 48°51' W 123°27'0 0.0
2017-Dec-06 21:12N 48°51' W 123°27'0 0.0
2017-Dec-06 21:00N 48°51' W 123°27'  

Dump ship's entire track history